• Join FlightAware (Why Join?)
  • Login
  • US Flag 
07:22PM EDT


 

Airport Tracker/Info


-or-


 

Live Flight TrackerFlight Track Log ✈ N80KW ✈ 02-Feb-2013 ✈ KFMY - KOPF

Flight Track Log - Related Links

Times and Time Zones

All times are in EST time to prevent confusion due to time zone crossing. See the N80KW flight status page for this flight to view local times or setup timezone preferences in your user account.

Time Position Orientation Groundspeed Altitude Reporting Facility
EST Latitude Longitude Course Direction KTS MPH feet Rate Location/Type
05:02PM 26.4053 -81.3053 115° Southeast 169 194 3,600  Level Miami Center
05:03PM 26.3836 -81.2603 118° Southeast 164 189 3,600 -60 Level Miami Center
05:04PM 26.3619 -81.2178 120° Southeast 164 189 3,500 -120 Descending Miami Center
05:04PM 26.3483 -81.1894 118° Southeast 162 186 3,500 60 Level Miami Center
05:05PM 26.3425 -81.1731 112° Southeast 164 189 3,600 60 Climbing Miami Center
05:05PM 26.3244 -81.1447 125° Southeast 163 188 3,600 -120 Level Miami Center
05:06PM 26.3208 -81.1283 104° East 164 189 3,500 -120 Descending Miami Center
05:06PM 26.3072 -81.0978 116° Southeast 164 189 3,500 60 Level Miami Center
05:07PM 26.2838 -81.1492 115° Southeast  Level Estimated
05:07PM 26.2992 -81.0836 122° Southeast 164 189 3,600  Level Miami Center
05:07PM 26.2792 -81.0503 124° Southeast 163 188 3,500 -120 Descending Miami Center
05:08PM 26.2756 -81.0317 102° East 164 189 3,500  Level Miami Center
05:08PM 26.2619 -81.0011 116° Southeast 169 194 3,500  Level Miami Center
05:09PM 26.2581 -80.9894 110° East 170 196 3,500  Level Miami Center
05:09PM 26.2403 -80.9539 119° Southeast 165 190 3,500  Level Miami Center
05:10PM 26.2403 -80.9472 90° East 164 189 3,500 60 Level Miami Center
05:10PM 26.2206 -80.9094 120° Southeast 166 191 3,600 60 Climbing Miami Center
05:11PM 26.2167 -80.8978 110° East 164 189 3,600  Level Miami Center
05:11PM 26.1967 -80.8692 128° Southeast 166 191 3,600 -120 Level Miami Center
05:12PM 26.1950 -80.8553 98° East 164 189 3,500 -120 Descending Miami Center
05:12PM 26.1750 -80.8222 124° Southeast 168 193 3,500 60 Level Miami Center
05:13PM 26.1711 -80.8106 110° East 164 189 3,600 60 Climbing Miami Center
05:13PM 26.1492 -80.7750 125° Southeast 169 194 3,600 -60 Level Miami Center
05:15PM 26.1253 -80.7256 118° Southeast 166 191 3,500 -180 Descending Miami Center
05:16PM 26.1036 -80.6811 118° Southeast 172 198 3,300 -360 Descending Miami Center
05:17PM 26.0819 -80.6319 116° Southeast 179 206 2,800 -540 Descending Miami Center